OOCL Tokyo — VRCI9 — position and weather

sailwx.info

Track history (hours):
 
Tides and Currents Weather Stations Pressure Air Temp Water Temp Dewpoint Dewpoint Depression Visibility Wind Speed Wind Dir Waves Ship Positions

OOCL Tokyo

Last reported at 2017-Nov-22 18:00 UTC. Time now 2017-Nov-23 04:03 UTC.
Position N 44°54' E 174°48'.

Length 323 m; draft 11.3 m.

Type: Cargo ship. MMSI: 477607700.

Wind from 050 at 23 knots

Barometer 1018.0 mb
Air temperature 7.0 ° C
Visibility: greater than 10.8 NM
Dewpoint 4.9 ° C

Date/timePositionNaut miles runAvg speedWind from/ knotsBaromVisibWave heightAir tempDewpointWater temp
2017-Nov-22 18:00N 44°54' E 174°48'18515.4 050 / 231018.010.8 7.0 4.9
2017-Nov-22 06:00N 44°30' E 170°30'20417.0 300 / 231013.0 5.4 9.0 8.0
2017-Nov-21 18:00N 44°00' E 165°48'19316.1 250 / 151005.0 2.2 7.0 4.9
2017-Nov-21 06:00N 43°30' E 161°24'74520.7 180 / 151014.010.8 11.0 5.0
2017-Nov-19 18:00N 41°42' E 144°42'   270 / 301009.0 5.4 2.0-3.3
2017-Nov-16 08:05N 31°06' E 122°32'110.2
2017-Nov-16 08:00N 31°06' E 122°31'4 6.0
2017-Nov-16 07:19N 31°06' E 122°26'412.4
2017-Nov-16 06:58N 31°06' E 122°21'713.9
2017-Nov-16 06:29N 31°09' E 122°14'714.5
2017-Nov-16 06:00N 31°13' E 122°07'713.6
2017-Nov-16 05:30N 31°15' E 121°60'611.8
2017-Nov-16 05:00N 31°16' E 121°53'611.7
2017-Nov-16 04:31N 31°18' E 121°47'612.4
2017-Nov-16 04:01N 31°21' E 121°40'5 9.7
2017-Nov-16 03:31N 31°23' E 121°35'0 0.4
2017-Nov-16 02:58N 31°23' E 121°35'0 0.0
2017-Nov-16 02:28N 31°23' E 121°35'0 0.0
2017-Nov-16 01:58N 31°23' E 121°35'0 0.0
2017-Nov-16 01:28N 31°23' E 121°35'0 0.0
2017-Nov-16 00:58N 31°23' E 121°35'0 0.0
2017-Nov-16 00:28N 31°23' E 121°35'0 0.0
2017-Nov-15 23:55N 31°23' E 121°35'0 0.0
2017-Nov-15 23:28N 31°23' E 121°35'0 0.0
2017-Nov-15 22:58N 31°23' E 121°35'0 0.0
2017-Nov-15 22:28N 31°23' E 121°35'0 0.0
2017-Nov-15 21:55N 31°23' E 121°35'0 0.0
2017-Nov-15 21:28N 31°23' E 121°35'0 0.0
2017-Nov-15 20:58N 31°23' E 121°35'0 0.0
2017-Nov-15 20:28N 31°23' E 121°35'0 0.0
2017-Nov-15 19:58N 31°23' E 121°35'0 0.0
2017-Nov-15 19:28N 31°23' E 121°35'0 0.0
2017-Nov-15 18:55N 31°23' E 121°35'0 0.0
2017-Nov-15 18:28N 31°23' E 121°35'0 0.0
2017-Nov-15 17:58N 31°23' E 121°35'0 0.0
2017-Nov-15 17:25N 31°23' E 121°35'0 0.0
2017-Nov-15 16:58N 31°23' E 121°35'0 0.0
2017-Nov-15 16:28N 31°23' E 121°35'0 0.0
2017-Nov-15 15:58N 31°23' E 121°35'0 0.0
2017-Nov-15 15:28N 31°23' E 121°35'0 0.0
2017-Nov-15 14:58N 31°23' E 121°35'0 0.0
2017-Nov-15 14:28N 31°23' E 121°35'0 0.0
2017-Nov-15 13:58N 31°23' E 121°35'0 0.0
2017-Nov-15 13:28N 31°23' E 121°35'0 0.0
2017-Nov-15 12:58N 31°23' E 121°35'0 0.0
2017-Nov-15 12:28N 31°23' E 121°35'0 0.0
2017-Nov-15 11:52N 31°23' E 121°35'0 0.0
2017-Nov-15 11:25N 31°23' E 121°35'0 0.0
2017-Nov-15 10:58N 31°23' E 121°35'0 0.0
2017-Nov-15 10:28N 31°23' E 121°35'0 0.0
2017-Nov-15 09:58N 31°23' E 121°35'0 0.0
2017-Nov-15 09:28N 31°23' E 121°35'0 0.1
2017-Nov-15 08:58N 31°23' E 121°35'0 0.0
2017-Nov-15 08:28N 31°23' E 121°35'0 0.0
2017-Nov-15 07:58N 31°23' E 121°35'0 0.0
2017-Nov-15 07:28N 31°23' E 121°35'0 0.0
2017-Nov-15 06:58N 31°23' E 121°35'0 0.0
2017-Nov-15 06:28N 31°23' E 121°35'0 0.0
2017-Nov-15 05:58N 31°23' E 121°35'0 0.0
2017-Nov-15 05:28N 31°23' E 121°35'0 0.0
2017-Nov-15 04:58N 31°23' E 121°35'0 0.0
2017-Nov-15 04:28N 31°23' E 121°35'0 0.0
2017-Nov-15 03:58N 31°23' E 121°35'0 0.0
2017-Nov-15 03:28N 31°23' E 121°35'0 0.4
2017-Nov-15 03:00N 31°23' E 121°35'1 2.1
2017-Nov-15 02:30N 31°23' E 121°36'5 9.4
2017-Nov-15 02:00N 31°21' E 121°41'5 9.8
2017-Nov-15 01:30N 31°18' E 121°46'510.8
2017-Nov-15 01:00N 31°16' E 121°51'611.4
2017-Nov-15 00:30N 31°15' E 121°58'612.1
2017-Nov-15 00:00N 31°14' E 122°05'510.3
2017-Nov-14 23:30N 31°11' E 122°10'611.9
2017-Nov-14 23:00N 31°08' E 122°16'510.5
2017-Nov-14 22:29N 31°06' E 122°22'6 9.7
2017-Nov-14 21:51N 31°07' E 122°29'510.1
2017-Nov-14 21:23N 31°07' E 122°34'22 1.0
2017-Nov-14 00:00N 30°48' E 122°48'   050 / 101016.0 5.4 19.014.2
Track history (hours):
 
Tides and Currents Weather Stations Pressure Air Temp Water Temp Dewpoint Dewpoint Depression Visibility Wind Speed Wind Dir Waves Ship Positions

OOCL Tokyo

Last reported at 2017-Nov-22 18:00 UTC. Time now 2017-Nov-23 04:03 UTC.
Position N 44°54' E 174°48'.

Length 323 m; draft 11.3 m.

Type: Cargo ship. MMSI: 477607700.

Wind from 050 at 23 knots

Barometer 1018.0 mb
Air temperature 7.0 ° C
Visibility: greater than 10.8 NM
Dewpoint 4.9 ° C

Date/timePositionNaut miles runAvg speedWind from/ knotsBaromVisibWave heightAir tempDewpointWater temp
2017-Nov-22 18:00N 44°54' E 174°48'18515.4 050 / 231018.010.8 7.0 4.9
2017-Nov-22 06:00N 44°30' E 170°30'20417.0 300 / 231013.0 5.4 9.0 8.0
2017-Nov-21 18:00N 44°00' E 165°48'19316.1 250 / 151005.0 2.2 7.0 4.9
2017-Nov-21 06:00N 43°30' E 161°24'74520.7 180 / 151014.010.8 11.0 5.0
2017-Nov-19 18:00N 41°42' E 144°42'   270 / 301009.0 5.4 2.0-3.3
2017-Nov-16 08:05N 31°06' E 122°32'110.2
2017-Nov-16 08:00N 31°06' E 122°31'4 6.0
2017-Nov-16 07:19N 31°06' E 122°26'412.4
2017-Nov-16 06:58N 31°06' E 122°21'713.9
2017-Nov-16 06:29N 31°09' E 122°14'714.5
2017-Nov-16 06:00N 31°13' E 122°07'713.6
2017-Nov-16 05:30N 31°15' E 121°60'611.8
2017-Nov-16 05:00N 31°16' E 121°53'611.7
2017-Nov-16 04:31N 31°18' E 121°47'612.4
2017-Nov-16 04:01N 31°21' E 121°40'5 9.7
2017-Nov-16 03:31N 31°23' E 121°35'0 0.4
2017-Nov-16 02:58N 31°23' E 121°35'0 0.0
2017-Nov-16 02:28N 31°23' E 121°35'0 0.0
2017-Nov-16 01:58N 31°23' E 121°35'0 0.0
2017-Nov-16 01:28N 31°23' E 121°35'0 0.0
2017-Nov-16 00:58N 31°23' E 121°35'0 0.0
2017-Nov-16 00:28N 31°23' E 121°35'0 0.0
2017-Nov-15 23:55N 31°23' E 121°35'0 0.0
2017-Nov-15 23:28N 31°23' E 121°35'0 0.0
2017-Nov-15 22:58N 31°23' E 121°35'0 0.0
2017-Nov-15 22:28N 31°23' E 121°35'0 0.0
2017-Nov-15 21:55N 31°23' E 121°35'0 0.0
2017-Nov-15 21:28N 31°23' E 121°35'0 0.0
2017-Nov-15 20:58N 31°23' E 121°35'0 0.0
2017-Nov-15 20:28N 31°23' E 121°35'0 0.0
2017-Nov-15 19:58N 31°23' E 121°35'0 0.0
2017-Nov-15 19:28N 31°23' E 121°35'0 0.0
2017-Nov-15 18:55N 31°23' E 121°35'0 0.0
2017-Nov-15 18:28N 31°23' E 121°35'0 0.0
2017-Nov-15 17:58N 31°23' E 121°35'0 0.0
2017-Nov-15 17:25N 31°23' E 121°35'0 0.0
2017-Nov-15 16:58N 31°23' E 121°35'0 0.0
2017-Nov-15 16:28N 31°23' E 121°35'0 0.0
2017-Nov-15 15:58N 31°23' E 121°35'0 0.0
2017-Nov-15 15:28N 31°23' E 121°35'0 0.0
2017-Nov-15 14:58N 31°23' E 121°35'0 0.0
2017-Nov-15 14:28N 31°23' E 121°35'0 0.0
2017-Nov-15 13:58N 31°23' E 121°35'0 0.0
2017-Nov-15 13:28N 31°23' E 121°35'0 0.0
2017-Nov-15 12:58N 31°23' E 121°35'0 0.0
2017-Nov-15 12:28N 31°23' E 121°35'0 0.0
2017-Nov-15 11:52N 31°23' E 121°35'0 0.0
2017-Nov-15 11:25N 31°23' E 121°35'0 0.0
2017-Nov-15 10:58N 31°23' E 121°35'0 0.0
2017-Nov-15 10:28N 31°23' E 121°35'0 0.0
2017-Nov-15 09:58N 31°23' E 121°35'0 0.0
2017-Nov-15 09:28N 31°23' E 121°35'0 0.1
2017-Nov-15 08:58N 31°23' E 121°35'0 0.0
2017-Nov-15 08:28N 31°23' E 121°35'0 0.0
2017-Nov-15 07:58N 31°23' E 121°35'0 0.0
2017-Nov-15 07:28N 31°23' E 121°35'0 0.0
2017-Nov-15 06:58N 31°23' E 121°35'0 0.0
2017-Nov-15 06:28N 31°23' E 121°35'0 0.0
2017-Nov-15 05:58N 31°23' E 121°35'0 0.0
2017-Nov-15 05:28N 31°23' E 121°35'0 0.0
2017-Nov-15 04:58N 31°23' E 121°35'0 0.0
2017-Nov-15 04:28N 31°23' E 121°35'0 0.0
2017-Nov-15 03:58N 31°23' E 121°35'0 0.0
2017-Nov-15 03:28N 31°23' E 121°35'0 0.4
2017-Nov-15 03:00N 31°23' E 121°35'1 2.1
2017-Nov-15 02:30N 31°23' E 121°36'5 9.4
2017-Nov-15 02:00N 31°21' E 121°41'5 9.8
2017-Nov-15 01:30N 31°18' E 121°46'510.8
2017-Nov-15 01:00N 31°16' E 121°51'611.4
2017-Nov-15 00:30N 31°15' E 121°58'612.1
2017-Nov-15 00:00N 31°14' E 122°05'510.3
2017-Nov-14 23:30N 31°11' E 122°10'611.9
2017-Nov-14 23:00N 31°08' E 122°16'510.5
2017-Nov-14 22:29N 31°06' E 122°22'6 9.7
2017-Nov-14 21:51N 31°07' E 122°29'510.1
2017-Nov-14 21:23N 31°07' E 122°34'22 1.0
2017-Nov-14 00:00N 30°48' E 122°48'   050 / 101016.0 5.4 19.014.2

Dump ship's entire track history